メインページ
METAR-TAF:

METAR-TAF

空港 :

コナ国際空港

カイルア・コナ, ハワイ州, アメリカ合衆国

緯度: 19-44-27N, 経度: 156-03-02W, 海抜: 13m

現時点の気象観測

当レポートは25分前の18:53(UTC)に作成
南/南西の風 7kt
気温 27°C
湿度 70%
気圧 1013 hPa
視程: 16.1km
高度3500ftの雲は散在している
高度5500ftの雲は散在している
高度12000ftの雲は散在している

METAR: PHKO 151853Z 21007KT 10SM SCT035 SCT055 SCT120 27/21 A2992 RMK AO2 SLP132 T02720211

時間: 09:18 (19:18 UTC)

予報

当レポートは1時間53分前の17:25(UTC)に作成
予報は15日の 18時(UTC)から 16日の 18時(UTC)まで有効
北西の風 6kt
視程: 10km
高度5000ftの雲はほとんどない
高度20000ftの雲は散在している
15日の 2100時(UTC)から
西の風 9kt
視程: 10km
高度3000ftの雲はほとんどない
高度6000ftの千切れ雲あり
16日の 0600時(UTC)から
北東の風 8kt
視程: 10km
高度3000ftの雲はほとんどない
高度6000ftの雲は散在している

TAF: PHKO 151725Z 1518/1618 31006KT P6SM FEW050 SCT200 FM152100 28009KT P6SM FEW030 BKN060 FM160600 05008KT P6SM FEW030 SCT060

4,000以上の空港の気象観測と天気予報(METAR報とTAF報)

利用可能な観測所は地図上に黄色い丸と赤い丸で示す。

丸の上にカーソルを重ねると観測所名を参照できる。

次にクリックすると気象観測と天気予報を参照できる。

マップの切り替え:黒色「×」印の緑ボタンをクリックして拡大、「-」印の緑ボタンをクリックして縮小、緑色の三角印をクリックして隣りの地図に切り替え


METAR-TAF: